createdAt,value
2023-04-23T00:01:17.999Z,8.95
2023-04-23T00:03:50.331Z,8.94
2023-04-23T00:06:20.080Z,8.92
2023-04-23T00:08:53.549Z,8.89
2023-04-23T00:11:31.994Z,8.86
2023-04-23T00:14:03.370Z,8.84
2023-04-23T00:16:35.828Z,8.80
2023-04-23T00:19:07.973Z,8.76
2023-04-23T00:21:39.743Z,8.73
2023-04-23T00:24:29.010Z,8.70
2023-04-23T00:27:05.437Z,8.67
2023-04-23T00:29:37.347Z,8.64
2023-04-23T00:32:17.295Z,8.63
2023-04-23T00:34:52.091Z,8.61
2023-04-23T00:37:25.521Z,8.58
2023-04-23T00:40:07.615Z,8.54
2023-04-23T00:42:42.351Z,8.50
2023-04-23T00:45:17.181Z,8.47
2023-04-23T00:47:49.671Z,8.44
2023-04-23T00:50:20.894Z,8.41
2023-04-23T00:52:49.798Z,8.37
2023-04-23T00:55:24.016Z,8.33
2023-04-23T00:57:59.857Z,8.29
2023-04-23T01:00:46.556Z,8.25
2023-04-23T01:03:22.074Z,8.21
2023-04-23T01:06:00.147Z,8.17
2023-04-23T01:08:36.905Z,8.14
2023-04-23T01:11:10.801Z,8.11
2023-04-23T01:13:40.212Z,8.09
2023-04-23T01:16:15.290Z,8.06
2023-04-23T01:18:52.025Z,8.05
2023-04-23T01:21:21.236Z,8.02
2023-04-23T01:23:52.777Z,7.98
2023-04-23T01:26:27.904Z,7.94
2023-04-23T01:28:58.530Z,7.91
2023-04-23T01:31:31.301Z,7.90
2023-04-23T01:34:03.790Z,7.90
2023-04-23T01:36:33.520Z,7.90
2023-04-23T01:39:13.855Z,7.90
2023-04-23T01:41:45.579Z,7.90
2023-04-23T01:44:17.281Z,7.90
2023-04-23T01:46:48.530Z,7.88
2023-04-23T01:49:20.380Z,7.87
2023-04-23T01:51:52.959Z,7.86
2023-04-23T01:54:21.733Z,7.84
2023-04-23T01:56:54.823Z,7.82
2023-04-23T01:59:29.255Z,7.79
2023-04-23T02:02:05.598Z,7.77
2023-04-23T02:04:39.604Z,7.74
2023-04-23T02:07:09.238Z,7.70
2023-04-23T02:09:41.318Z,7.67
2023-04-23T02:12:12.642Z,7.63
2023-04-23T02:14:47.170Z,7.58
2023-04-23T02:17:25.089Z,7.55
2023-04-23T02:19:59.617Z,7.52
2023-04-23T02:22:31.753Z,7.49
2023-04-23T02:25:07.731Z,7.46
2023-04-23T02:27:42.586Z,7.44
2023-04-23T02:30:23.133Z,7.40
2023-04-23T02:32:59.544Z,7.36
2023-04-23T02:35:31.772Z,7.29
2023-04-23T02:38:10.993Z,7.22
2023-04-23T02:40:44.691Z,7.17
2023-04-23T02:43:22.798Z,7.10
2023-04-23T02:45:54.594Z,7.04
2023-04-23T02:48:29.927Z,6.99
2023-04-23T02:51:06.677Z,6.96
2023-04-23T02:53:38.326Z,6.94
2023-04-23T02:56:12.888Z,6.92
2023-04-23T02:59:16.312Z,6.90
2023-04-23T03:01:52.138Z,6.87
2023-04-23T03:04:29.133Z,6.84
2023-04-23T03:06:58.088Z,6.82
2023-04-23T03:09:34.150Z,6.80
2023-04-23T03:12:08.075Z,6.80
2023-04-23T03:14:42.433Z,6.78
2023-04-23T03:17:14.748Z,6.76
2023-04-23T03:19:43.721Z,6.73
2023-04-23T03:22:17.225Z,6.70
2023-04-23T03:25:01.194Z,6.67
2023-04-23T03:27:32.630Z,6.63
2023-04-23T03:30:04.461Z,6.60
2023-04-23T03:32:36.274Z,6.56
2023-04-23T03:35:09.777Z,6.53
2023-04-23T03:37:53.173Z,6.52
2023-04-23T03:40:25.251Z,6.51
2023-04-23T03:43:08.150Z,6.52
2023-04-23T03:45:58.101Z,6.51
2023-04-23T03:48:30.313Z,6.53
2023-04-23T03:51:02.184Z,6.53
2023-04-23T03:53:46.950Z,6.54
2023-04-23T03:56:40.614Z,6.55
2023-04-23T03:59:37.294Z,6.55
2023-04-23T04:02:13.807Z,6.55
2023-04-23T04:04:46.229Z,6.56
2023-04-23T04:07:32.134Z,6.59
2023-04-23T04:10:05.252Z,6.65
2023-04-23T04:12:37.053Z,6.71
2023-04-23T04:15:12.746Z,6.77
2023-04-23T04:17:46.290Z,6.84
2023-04-23T04:20:14.983Z,6.92
2023-04-23T04:22:47.055Z,7.00
2023-04-23T04:25:18.573Z,7.06
2023-04-23T04:27:49.635Z,7.14
2023-04-23T04:30:18.118Z,7.23
2023-04-23T04:32:52.951Z,7.35
2023-04-23T04:35:22.242Z,7.47
2023-04-23T04:37:54.212Z,7.59
2023-04-23T04:40:23.333Z,7.69
2023-04-23T04:42:53.239Z,7.79
2023-04-23T04:45:25.922Z,7.89
2023-04-23T04:48:10.553Z,7.99
2023-04-23T04:50:51.217Z,8.10
2023-04-23T04:53:31.278Z,8.25
2023-04-23T04:56:20.274Z,8.40
2023-04-23T04:58:52.094Z,8.61
2023-04-23T05:01:31.172Z,8.81
2023-04-23T05:04:05.730Z,9.03
2023-04-23T05:06:37.214Z,9.28
2023-04-23T05:09:11.006Z,9.56
2023-04-23T05:11:49.414Z,9.88
2023-04-23T05:14:18.522Z,10.16
2023-04-23T05:16:50.310Z,10.45
2023-04-23T05:19:30.439Z,10.72
2023-04-23T05:21:59.533Z,11.01
2023-04-23T05:24:31.502Z,11.30
2023-04-23T05:26:59.962Z,11.58
2023-04-23T05:29:30.911Z,11.86
2023-04-23T05:31:59.670Z,12.14
2023-04-23T05:34:28.684Z,12.41
2023-04-23T05:36:59.561Z,12.66
2023-04-23T05:39:31.571Z,12.89
2023-04-23T05:42:00.088Z,13.13
2023-04-23T05:44:31.097Z,13.36
2023-04-23T05:46:59.583Z,13.58
2023-04-23T05:49:28.299Z,13.78
2023-04-23T05:51:58.809Z,13.99
2023-04-23T05:54:27.032Z,14.18
2023-04-23T05:56:55.634Z,14.36
2023-04-23T05:59:24.761Z,14.53
2023-04-23T06:01:56.211Z,14.69
2023-04-23T06:04:25.194Z,14.85
2023-04-23T06:06:54.000Z,15.01
2023-04-23T06:09:22.359Z,15.16
2023-04-23T06:11:54.887Z,15.30
2023-04-23T06:14:23.485Z,15.45
2023-04-23T06:16:52.165Z,15.60
2023-04-23T06:19:27.548Z,15.76
2023-04-23T06:21:56.363Z,15.93
2023-04-23T06:24:24.709Z,16.09
2023-04-23T06:26:53.192Z,16.24
2023-04-23T06:29:22.214Z,16.40
2023-04-23T06:31:57.557Z,16.60
2023-04-23T06:34:26.219Z,16.77
2023-04-23T06:36:54.811Z,16.94
2023-04-23T06:39:23.175Z,17.09
2023-04-23T06:41:51.748Z,17.25
2023-04-23T06:44:24.750Z,17.41
2023-04-23T06:46:53.313Z,17.59
2023-04-23T06:49:21.814Z,17.77
2023-04-23T06:51:50.137Z,17.96
2023-04-23T06:54:18.685Z,18.15
2023-04-23T06:56:47.156Z,18.31
2023-04-23T06:59:15.276Z,18.46
2023-04-23T07:01:47.300Z,18.63
2023-04-23T07:04:16.122Z,18.79
2023-04-23T07:06:44.461Z,18.94
2023-04-23T07:09:13.268Z,19.10
2023-04-23T07:11:41.820Z,19.25
2023-04-23T07:14:10.328Z,19.37
2023-04-23T07:16:38.732Z,19.45
2023-04-23T07:19:07.102Z,19.50
2023-04-23T07:21:36.088Z,19.51
2023-04-23T07:24:07.466Z,19.47
2023-04-23T07:26:37.188Z,19.40
2023-04-23T07:29:11.263Z,19.33
2023-04-23T07:31:41.997Z,19.31
2023-04-23T07:34:10.593Z,19.36
2023-04-23T07:36:38.975Z,19.45
2023-04-23T07:39:07.196Z,19.60
2023-04-23T07:41:36.958Z,19.76
2023-04-23T07:44:05.614Z,19.91
2023-04-23T07:46:34.130Z,20.07
2023-04-23T07:49:02.899Z,20.18
2023-04-23T07:51:32.116Z,20.23
2023-04-23T07:54:00.762Z,20.24
2023-04-23T07:56:32.636Z,20.23
2023-04-23T07:59:01.234Z,20.23
2023-04-23T08:01:30.164Z,20.24
2023-04-23T08:04:00.961Z,20.26
2023-04-23T08:06:35.292Z,20.35
2023-04-23T08:09:06.699Z,20.51
2023-04-23T08:11:35.712Z,20.71
2023-04-23T08:14:03.984Z,20.91
2023-04-23T08:16:32.493Z,21.13
2023-04-23T08:19:05.301Z,21.31
2023-04-23T08:21:35.888Z,21.49
2023-04-23T08:24:07.034Z,21.61
2023-04-23T08:26:35.723Z,21.75
2023-04-23T08:29:05.560Z,21.89
2023-04-23T08:31:34.036Z,21.95
2023-04-23T08:34:02.960Z,21.92
2023-04-23T08:36:32.624Z,21.88
2023-04-23T08:39:02.148Z,21.88
2023-04-23T08:41:43.413Z,21.89
2023-04-23T08:44:22.339Z,21.88
2023-04-23T08:46:53.275Z,21.86
2023-04-23T08:49:21.943Z,21.87
2023-04-23T08:51:54.637Z,21.92
2023-04-23T08:54:28.004Z,21.98
2023-04-23T08:56:58.745Z,22.07
2023-04-23T08:59:30.147Z,22.20
2023-04-23T09:02:01.407Z,22.34
2023-04-23T09:04:31.928Z,22.47
2023-04-23T09:07:01.837Z,22.54
2023-04-23T09:09:31.312Z,22.57
2023-04-23T09:12:00.498Z,22.57
2023-04-23T09:14:29.210Z,22.57
2023-04-23T09:16:58.479Z,22.57
2023-04-23T09:19:28.308Z,22.60
2023-04-23T09:21:58.764Z,22.66
2023-04-23T09:24:27.268Z,22.72
2023-04-23T09:26:57.971Z,22.79
2023-04-23T09:29:27.070Z,22.80
2023-04-23T09:32:04.686Z,22.77
2023-04-23T09:34:36.713Z,22.72
2023-04-23T09:37:08.171Z,22.69
2023-04-23T09:39:36.738Z,22.67
2023-04-23T09:42:08.660Z,22.65
2023-04-23T09:44:37.172Z,22.61
2023-04-23T09:47:10.160Z,22.55
2023-04-23T09:49:52.892Z,22.48
2023-04-23T09:52:22.830Z,22.43
2023-04-23T09:54:51.483Z,22.41
2023-04-23T09:57:21.025Z,22.41
2023-04-23T09:59:53.065Z,22.45
2023-04-23T10:02:29.623Z,22.52
2023-04-23T10:05:09.904Z,22.53
2023-04-23T10:07:51.671Z,22.53
2023-04-23T10:10:20.868Z,22.52
2023-04-23T10:12:55.206Z,22.50
2023-04-23T10:15:27.780Z,22.43
2023-04-23T10:17:57.156Z,22.40
2023-04-23T10:20:26.263Z,22.37
2023-04-23T10:22:57.922Z,22.34
2023-04-23T10:25:27.214Z,22.32
2023-04-23T10:27:58.924Z,22.32
2023-04-23T10:30:28.599Z,22.35
2023-04-23T10:33:01.722Z,22.39
2023-04-23T10:35:31.074Z,22.43
2023-04-23T10:38:00.271Z,22.48
2023-04-23T10:40:36.944Z,22.56
2023-04-23T10:43:06.249Z,22.65
2023-04-23T10:45:34.998Z,22.73
2023-04-23T10:48:04.744Z,22.80
2023-04-23T10:50:37.820Z,22.89
2023-04-23T10:53:21.634Z,22.97
2023-04-23T10:55:50.974Z,23.03
2023-04-23T10:58:21.191Z,23.07
2023-04-23T11:00:51.216Z,23.14
2023-04-23T11:03:44.437Z,23.20
2023-04-23T11:06:19.308Z,23.27
2023-04-23T11:08:55.255Z,23.30
2023-04-23T11:11:40.735Z,23.32
2023-04-23T11:14:15.898Z,23.37
2023-04-23T11:16:44.392Z,23.42
2023-04-23T11:19:13.031Z,23.46
2023-04-23T11:21:58.816Z,23.54
2023-04-23T11:24:29.303Z,23.60
2023-04-23T11:26:58.982Z,23.62
2023-04-23T11:29:29.027Z,23.59
2023-04-23T11:32:02.951Z,23.53
2023-04-23T11:34:33.549Z,23.50
2023-04-23T11:37:03.443Z,23.46
2023-04-23T11:39:32.765Z,23.43
2023-04-23T11:42:03.904Z,23.38
2023-04-23T11:44:32.795Z,23.34
2023-04-23T11:47:05.262Z,23.29
2023-04-23T11:49:34.267Z,23.23
2023-04-23T11:52:03.757Z,23.18
2023-04-23T11:54:33.677Z,23.15
2023-04-23T11:57:05.023Z,23.08
2023-04-23T11:59:33.265Z,23.03
2023-04-23T12:02:01.701Z,22.93
2023-04-23T12:04:32.051Z,22.86
2023-04-23T12:07:04.259Z,22.80
2023-04-23T12:09:39.536Z,22.74
2023-04-23T12:12:08.083Z,22.67
2023-04-23T12:14:36.666Z,22.61
2023-04-23T12:17:12.324Z,22.54
2023-04-23T12:19:45.049Z,22.49
2023-04-23T12:22:13.475Z,22.43
2023-04-23T12:24:54.530Z,22.39
2023-04-23T12:27:23.135Z,22.33
2023-04-23T12:30:00.944Z,22.29
2023-04-23T12:32:29.769Z,22.24
2023-04-23T12:34:58.545Z,22.14
2023-04-23T12:37:31.816Z,22.03
2023-04-23T12:40:00.292Z,21.90
2023-04-23T12:42:28.994Z,21.71
2023-04-23T12:45:07.545Z,21.49
2023-04-23T12:47:36.834Z,21.28
2023-04-23T12:50:06.287Z,21.13
2023-04-23T12:52:35.102Z,20.98
2023-04-23T12:55:05.317Z,20.85
2023-04-23T12:57:33.996Z,20.73
2023-04-23T13:00:02.760Z,20.64
2023-04-23T13:02:31.742Z,20.55
2023-04-23T13:05:01.510Z,20.53
2023-04-23T13:07:30.387Z,20.54
2023-04-23T13:09:59.836Z,20.55
2023-04-23T13:12:28.473Z,20.57
2023-04-23T13:14:58.379Z,20.58
2023-04-23T13:17:27.105Z,20.64
2023-04-23T13:19:57.317Z,20.70
2023-04-23T13:22:29.255Z,20.78
2023-04-23T13:24:58.664Z,20.83
2023-04-23T13:27:29.822Z,20.89
2023-04-23T13:29:59.107Z,20.95
2023-04-23T13:32:32.303Z,20.98
2023-04-23T13:35:03.109Z,21.02
2023-04-23T13:37:32.648Z,21.06
2023-04-23T13:40:01.849Z,21.09
2023-04-23T13:42:31.201Z,21.08
2023-04-23T13:45:00.221Z,21.06
2023-04-23T13:47:31.936Z,21.03
2023-04-23T13:50:05.501Z,20.97
2023-04-23T13:52:35.622Z,20.90
2023-04-23T13:55:04.900Z,20.82
2023-04-23T13:57:34.662Z,20.73
2023-04-23T14:00:04.651Z,20.65
2023-04-23T14:02:34.625Z,20.57
2023-04-23T14:05:04.671Z,20.50
2023-04-23T14:07:34.394Z,20.43
2023-04-23T14:10:03.209Z,20.38
2023-04-23T14:12:31.772Z,20.34
2023-04-23T14:15:00.662Z,20.28
2023-04-23T14:17:29.479Z,20.20
2023-04-23T14:19:58.669Z,20.12
2023-04-23T14:22:29.374Z,20.05
2023-04-23T14:25:03.925Z,19.96
2023-04-23T14:27:34.428Z,19.85
2023-04-23T14:30:07.531Z,19.72
2023-04-23T14:32:36.239Z,19.54
2023-04-23T14:35:05.696Z,19.38
2023-04-23T14:37:34.520Z,19.23
2023-04-23T14:40:03.939Z,19.10
2023-04-23T14:42:33.105Z,18.93
2023-04-23T14:45:02.942Z,18.80
2023-04-23T14:47:31.996Z,18.66
2023-04-23T14:50:01.858Z,18.54
2023-04-23T14:52:31.918Z,18.43
2023-04-23T14:55:01.518Z,18.33
2023-04-23T14:57:31.495Z,18.25
2023-04-23T15:00:01.301Z,18.14
2023-04-23T15:02:32.178Z,18.04
2023-04-23T15:05:01.504Z,17.93
2023-04-23T15:07:33.569Z,17.83
2023-04-23T15:10:07.158Z,17.69
2023-04-23T15:12:43.832Z,17.55
2023-04-23T15:15:30.550Z,17.41
2023-04-23T15:18:03.016Z,17.30
2023-04-23T15:20:32.866Z,17.21
2023-04-23T15:23:02.256Z,17.14
2023-04-23T15:25:33.755Z,17.09
2023-04-23T15:28:04.495Z,17.03
2023-04-23T15:30:34.456Z,17.00
2023-04-23T15:33:03.364Z,16.96
2023-04-23T15:35:32.360Z,16.93
2023-04-23T15:38:02.044Z,16.90
2023-04-23T15:40:30.958Z,16.87
2023-04-23T15:42:59.714Z,16.81
2023-04-23T15:45:28.890Z,16.77
2023-04-23T15:47:58.246Z,16.73
2023-04-23T15:50:27.636Z,16.68
2023-04-23T15:52:59.900Z,16.64
2023-04-23T15:55:30.072Z,16.59
2023-04-23T15:58:04.372Z,16.54
2023-04-23T16:00:34.251Z,16.50
2023-04-23T16:03:05.564Z,16.44
2023-04-23T16:05:36.921Z,16.36
2023-04-23T16:08:06.613Z,16.28
2023-04-23T16:10:37.646Z,16.22
2023-04-23T16:13:07.191Z,16.14
2023-04-23T16:15:36.831Z,16.07
2023-04-23T16:18:06.553Z,16.00
2023-04-23T16:20:36.453Z,15.92
2023-04-23T16:23:07.002Z,15.83
2023-04-23T16:25:37.470Z,15.75
2023-04-23T16:28:08.394Z,15.69
2023-04-23T16:30:38.153Z,15.64
2023-04-23T16:33:08.779Z,15.59
2023-04-23T16:35:38.882Z,15.56
2023-04-23T16:38:11.579Z,15.51
2023-04-23T16:40:40.856Z,15.48
2023-04-23T16:43:11.703Z,15.45
2023-04-23T16:45:41.377Z,15.40
2023-04-23T16:48:14.094Z,15.35
2023-04-23T16:50:44.671Z,15.29
2023-04-23T16:53:14.029Z,15.21
2023-04-23T16:55:45.422Z,15.14
2023-04-23T16:58:15.075Z,15.07
2023-04-23T17:00:47.251Z,15.01
2023-04-23T17:03:17.815Z,14.95
2023-04-23T17:05:55.482Z,14.90
2023-04-23T17:08:25.083Z,14.84
2023-04-23T17:10:56.321Z,14.80
2023-04-23T17:13:26.156Z,14.77
2023-04-23T17:15:54.802Z,14.74
2023-04-23T17:18:24.636Z,14.71
2023-04-23T17:20:55.168Z,14.70
2023-04-23T17:23:25.909Z,14.68
2023-04-23T17:25:55.524Z,14.66
2023-04-23T17:28:24.931Z,14.64
2023-04-23T17:30:56.152Z,14.63
2023-04-23T17:33:25.466Z,14.61
2023-04-23T17:35:56.129Z,14.61
2023-04-23T17:38:26.305Z,14.60
2023-04-23T17:40:55.629Z,14.58
2023-04-23T17:43:24.958Z,14.57
2023-04-23T17:45:54.076Z,14.56
2023-04-23T17:48:23.718Z,14.52
2023-04-23T17:50:55.837Z,14.48
2023-04-23T17:53:25.298Z,14.43
2023-04-23T17:55:58.823Z,14.38
2023-04-23T17:58:27.934Z,14.34
2023-04-23T18:00:58.030Z,14.30
2023-04-23T18:03:30.477Z,14.28
2023-04-23T18:05:59.813Z,14.26
2023-04-23T18:08:32.059Z,14.21
2023-04-23T18:11:01.365Z,14.17
2023-04-23T18:13:30.984Z,14.13
2023-04-23T18:15:59.539Z,14.09
2023-04-23T18:18:28.434Z,14.06
2023-04-23T18:20:57.760Z,14.03
2023-04-23T18:23:28.045Z,13.99
2023-04-23T18:25:57.149Z,13.96
2023-04-23T18:28:26.342Z,13.95
2023-04-23T18:31:02.843Z,13.93
2023-04-23T18:33:41.773Z,13.92
2023-04-23T18:36:22.718Z,13.89
2023-04-23T18:38:52.332Z,13.87
2023-04-23T18:41:21.840Z,13.84
2023-04-23T18:43:53.102Z,13.82
2023-04-23T18:46:23.241Z,13.80
2023-04-23T18:48:57.895Z,13.78
2023-04-23T18:51:33.776Z,13.75
2023-04-23T18:54:03.289Z,13.73
2023-04-23T18:56:35.152Z,13.71
2023-04-23T18:59:05.078Z,13.70
2023-04-23T19:01:36.916Z,13.69
2023-04-23T19:04:06.728Z,13.68
2023-04-23T19:06:35.961Z,13.66
2023-04-23T19:09:05.783Z,13.65
2023-04-23T19:11:37.171Z,13.63
2023-04-23T19:14:07.206Z,13.62
2023-04-23T19:16:37.070Z,13.61
2023-04-23T19:19:07.394Z,13.59
2023-04-23T19:21:37.040Z,13.59
2023-04-23T19:24:06.654Z,13.57
2023-04-23T19:26:36.437Z,13.55
2023-04-23T19:29:05.591Z,13.54
2023-04-23T19:31:34.505Z,13.52
2023-04-23T19:34:03.669Z,13.52
2023-04-23T19:36:32.802Z,13.51
2023-04-23T19:39:02.247Z,13.49
2023-04-23T19:41:31.360Z,13.49
2023-04-23T19:44:00.417Z,13.49
2023-04-23T19:46:30.243Z,13.49
2023-04-23T19:48:59.889Z,13.48
2023-04-23T19:51:33.602Z,13.47
2023-04-23T19:54:03.564Z,13.46
2023-04-23T19:56:34.355Z,13.45
2023-04-23T19:59:03.476Z,13.44
2023-04-23T20:01:32.973Z,13.43
2023-04-23T20:04:02.590Z,13.42
2023-04-23T20:06:32.876Z,13.42
2023-04-23T20:09:08.110Z,13.41
2023-04-23T20:11:37.907Z,13.40
2023-04-23T20:14:07.001Z,13.38
2023-04-23T20:16:36.047Z,13.37
2023-04-23T20:19:11.785Z,13.36
2023-04-23T20:21:42.994Z,13.35
2023-04-23T20:24:15.015Z,13.33
2023-04-23T20:26:45.615Z,13.32
2023-04-23T20:29:22.518Z,13.31
2023-04-23T20:31:52.043Z,13.29
2023-04-23T20:34:22.330Z,13.27
2023-04-23T20:36:56.819Z,13.23
2023-04-23T20:39:27.057Z,13.21
2023-04-23T20:41:58.286Z,13.17
2023-04-23T20:44:28.712Z,13.12
2023-04-23T20:47:04.792Z,13.07
2023-04-23T20:49:35.155Z,13.04
2023-04-23T20:52:04.187Z,13.01
2023-04-23T20:54:34.866Z,12.97
2023-04-23T20:57:04.358Z,12.96
2023-04-23T20:59:33.538Z,12.94
2023-04-23T21:02:03.358Z,12.92
2023-04-23T21:04:36.189Z,12.92
2023-04-23T21:07:06.560Z,12.92
2023-04-23T21:09:37.008Z,12.93
2023-04-23T21:12:07.324Z,12.94
2023-04-23T21:14:37.000Z,12.94
2023-04-23T21:17:09.810Z,12.94
2023-04-23T21:19:39.874Z,12.94
2023-04-23T21:22:11.459Z,12.95
2023-04-23T21:24:41.057Z,12.95
2023-04-23T21:27:16.714Z,12.96
2023-04-23T21:29:47.183Z,12.96
2023-04-23T21:32:16.340Z,12.97
2023-04-23T21:34:45.157Z,12.96
2023-04-23T21:37:14.858Z,12.96
2023-04-23T21:39:44.536Z,12.97
2023-04-23T21:42:13.737Z,12.98
2023-04-23T21:44:43.053Z,12.99
2023-04-23T21:47:11.841Z,13.00
2023-04-23T21:49:43.100Z,13.01
2023-04-23T21:52:12.160Z,13.03
2023-04-23T21:54:40.818Z,13.05
2023-04-23T21:57:09.672Z,13.07
2023-04-23T21:59:40.099Z,13.09
2023-04-23T22:02:09.489Z,13.11
2023-04-23T22:04:38.394Z,13.12
2023-04-23T22:07:07.587Z,13.13
2023-04-23T22:09:36.261Z,13.13
2023-04-23T22:12:05.450Z,13.15
2023-04-23T22:14:34.993Z,13.15
2023-04-23T22:17:03.958Z,13.15
2023-04-23T22:19:32.434Z,13.15
2023-04-23T22:22:01.225Z,13.15
2023-04-23T22:24:30.007Z,13.15
2023-04-23T22:27:02.178Z,13.14
2023-04-23T22:29:30.803Z,13.14
2023-04-23T22:31:59.577Z,13.14
2023-04-23T22:34:28.224Z,13.14
2023-04-23T22:36:57.019Z,13.14
2023-04-23T22:39:25.804Z,13.13
2023-04-23T22:41:54.497Z,13.13
2023-04-23T22:44:22.974Z,13.12
2023-04-23T22:46:51.769Z,13.11
2023-04-23T22:49:20.244Z,13.11
2023-04-23T22:51:50.001Z,13.11
2023-04-23T22:54:18.742Z,13.11
2023-04-23T22:56:47.432Z,13.11
2023-04-23T22:59:16.117Z,13.11
2023-04-23T23:01:44.657Z,13.11
2023-04-23T23:04:13.284Z,13.10
2023-04-23T23:06:43.195Z,13.10
2023-04-23T23:09:11.784Z,13.09
2023-04-23T23:11:40.225Z,13.09
2023-04-23T23:14:08.986Z,13.09
2023-04-23T23:16:37.947Z,13.09
2023-04-23T23:19:06.734Z,13.11
2023-04-23T23:21:35.416Z,13.13
2023-04-23T23:24:04.098Z,13.15
2023-04-23T23:26:35.750Z,13.17
2023-04-23T23:29:04.967Z,13.19
2023-04-23T23:31:37.188Z,13.20
2023-04-23T23:34:06.689Z,13.22
2023-04-23T23:36:35.521Z,13.23
2023-04-23T23:39:04.795Z,13.24
2023-04-23T23:41:33.315Z,13.26
2023-04-23T23:44:01.770Z,13.27
2023-04-23T23:46:31.702Z,13.28
2023-04-23T23:49:00.696Z,13.29
2023-04-23T23:51:29.379Z,13.30
2023-04-23T23:53:58.372Z,13.31
2023-04-23T23:56:27.050Z,13.31
2023-04-23T23:58:55.877Z,13.32
